Terminal Aerodrome Forecast
Issued by NWS Grand Junction, CO

Home | Current Version | Previous Version | Text Only | Print | Product List | Glossary On
Versions: 1 2 3 4 5 6 7 8 9 10 11 12 13 14 15 16 17 18 19
000
FTUS45 KGJT 231742
TAFGJT
TAF
KGJT 231742Z 2318/2418 33009G15KT P6SM -SHRA VCTS FEW070 BKN080CB
     FM232000 30010G15KT P6SM -SHRA VCTS BKN060CB
     FM240300 34006KT 5SM -SHRA BR SCT025 BKN040
     FM240900 33005KT P6SM BKN025 OVC050
     FM241600 32005KT P6SM SCT060=

USA.gov is the U.S. government's official web portal to all federal, state and local government web resources and services.